Time;durP1;ratioP1;P1;durP2;ratioP2;P2;SDS_P1;SDS_P2;PMS_P1;PMS_P2;Temp;Humidity;BMP_temperature;BMP_pressure;BME280_temperature;BME280_humidity;BME280_pressure;Samples;Min_cycle;Max_cycle;Signal;HPM_P1;HPM_P2
2022/01/27 11:28:51;;;;;;;9.67;4.70;;;;;;;1.13;92.11;99834.78;5108791;27;20537;-83
2022/01/27 11:35:06;;;;;;;8.07;3.63;;;;;;;2.18;85.33;99847.59;5050993;28;41938;-81
2022/01/27 11:37:56;;;;;;;5.87;3.93;;;;;;;2.55;83.13;99841.84;5064515;28;41912;-82
2022/01/27 11:41:00;;;;;;;7.63;3.90;;;;;;;2.73;81.26;99841.56;5080298;28;41639;-82
2022/01/27 11:43:48;;;;;;;10.00;3.73;;;;;;;2.87;80.08;99850.94;5083218;28;38877;-83
2022/01/27 11:46:33;;;;;;;6.97;4.57;;;;;;;2.84;79.41;99842.28;5077904;28;40614;-81
2022/01/27 11:53:00;;;;;;;8.90;3.60;;;;;;;2.97;78.13;99830.72;5085586;28;41186;-82
2022/01/27 11:56:27;;;;;;;5.83;2.60;;;;;;;2.98;77.24;99816.75;5087008;28;39493;-83
2022/01/27 11:59:10;;;;;;;7.27;3.17;;;;;;;3.19;77.27;99837.34;5049365;28;40670;-82
2022/01/27 12:02:19;;;;;;;8.57;3.30;;;;;;;2.86;75.94;99775.97;5049801;28;41848;-83
2022/01/27 12:05:19;;;;;;;7.77;3.67;;;;;;;3.23;76.65;99838.13;5050958;28;41373;-82
2022/01/27 12:08:26;;;;;;;6.07;3.17;;;;;;;3.30;76.08;99833.69;5075954;28;38938;-81
2022/01/27 12:11:10;;;;;;;6.10;3.23;;;;;;;3.30;76.03;99815.34;5103576;28;41841;-82
2022/01/27 12:14:02;;;;;;;7.27;3.77;;;;;;;3.33;76.16;99791.75;5070508;28;42462;-80
2022/01/27 12:16:56;;;;;;;11.20;4.20;;;;;;;3.35;75.87;99785.56;5086507;28;40959;-81
2022/01/27 12:19:48;;;;;;;5.23;3.23;;;;;;;3.41;75.23;99793.31;5085966;28;40270;-81
2022/01/27 12:22:30;;;;;;;5.00;2.80;;;;;;;3.51;75.11;99812.34;5083099;28;42201;-81
2022/01/27 12:25:20;;;;;;;4.70;3.17;;;;;;;3.52;74.98;99820.16;5070620;28;41926;-79
2022/01/27 12:31:04;;;;;;;5.67;2.80;;;;;;;3.50;74.72;99797.50;5073498;28;39094;-81
2022/01/27 12:33:53;;;;;;;5.50;3.27;;;;;;;3.30;74.77;99745.53;5070425;28;41117;-81
2022/01/27 12:36:34;;;;;;;7.60;3.70;;;;;;;3.29;74.65;99742.94;5086684;28;42093;-83
2022/01/27 12:39:47;;;;;;;5.07;2.67;;;;;;;3.69;74.96;99785.81;5051224;28;43210;-84
2022/01/27 12:42:39;;;;;;;5.63;2.83;;;;;;;3.65;74.74;99784.13;5057972;28;38874;-93
2022/01/27 12:45:28;;;;;;;5.40;3.03;;;;;;;3.50;74.73;99773.94;5035991;28;41200;-83
2022/01/27 12:48:11;;;;;;;5.53;3.00;;;;;;;3.54;74.69;99767.75;5021763;28;42392;-85
2022/01/27 12:54:02;;;;;;;5.27;3.07;;;;;;;3.40;74.53;99726.13;5029912;28;39480;-86
2022/01/27 12:56:50;;;;;;;6.10;3.30;;;;;;;3.46;74.64;99725.16;5017439;28;41410;-87
2022/01/27 12:59:59;;;;;;;6.07;3.77;;;;;;;3.38;74.69;99714.81;5015847;28;42070;-85
2022/01/27 13:03:27;;;;;;;4.90;2.87;;;;;;;3.57;74.68;99741.53;5016165;28;41879;-82
2022/01/27 13:06:07;;;;;;;6.80;3.97;;;;;;;3.59;74.56;99737.09;5015926;28;39217;-82
2022/01/27 13:09:17;;;;;;;6.97;3.67;;;;;;;3.45;74.61;99707.72;5016362;28;40655;-85
2022/01/27 13:12:00;;;;;;;6.50;3.80;;;;;;;3.62;74.54;99744.88;5015545;28;41735;-82
2022/01/27 13:15:07;;;;;;;13.03;4.80;;;;;;;3.58;74.64;99740.63;5028748;28;41573;-81
2022/01/27 13:18:38;;;;;;;7.30;3.97;;;;;;;3.51;74.67;99715.44;5019472;28;38932;-84
2022/01/27 13:21:43;;;;;;;8.03;4.20;;;;;;;3.36;74.64;99703.50;5002201;28;41124;-84
2022/01/27 13:28:39;;;;;;;6.47;3.07;;;;;;;3.40;75.01;99681.63;5016851;28;41377;-83
2022/01/27 13:31:25;;;;;;;7.10;4.30;;;;;;;3.50;75.00;99698.88;5016877;28;39009;-82
2022/01/27 13:34:16;;;;;;;9.07;4.43;;;;;;;3.46;75.11;99702.44;5031776;28;40935;-82
2022/01/27 13:36:57;;;;;;;8.40;4.27;;;;;;;3.32;75.23;99685.28;5015045;28;42111;-83
2022/01/27 13:42:54;;;;;;;9.57;4.20;;;;;;;3.41;75.78;99711.28;5014896;28;38722;-80
2022/01/27 13:45:44;;;;;;;8.73;3.47;;;;;;;3.33;75.66;99679.16;5015798;28;41536;-87
2022/01/27 13:48:54;;;;;;;8.07;4.00;;;;;;;3.24;75.82;99670.59;5014663;28;43078;-86
